Time;durP1;ratioP1;P1;durP2;ratioP2;P2;SDS_P1;SDS_P2;PMS_P1;PMS_P2;Temp;Humidity;BMP_temperature;BMP_pressure;BME280_temperature;BME280_humidity;BME280_pressure;Samples;Min_cycle;Max_cycle;Signal;HPM_P1;HPM_P2
2022/03/19 00:00:53;;;;;;;25.00;3.42;;;;;;;;;;5020601;28;20381;-74
2022/03/19 00:03:20;;;;;;;24.35;3.22;;;;;;;;;;5015901;28;20025;-74
2022/03/19 00:05:46;;;;;;;14.75;3.65;;;;;;;;;;5028067;28;20133;-74
2022/03/19 00:08:13;;;;;;;26.00;4.25;;;;;;;;;;5029858;28;20025;-74
2022/03/19 00:10:39;;;;;;;21.77;4.30;;;;;;;;;;5026354;28;20029;-74
2022/03/19 00:13:05;;;;;;;15.60;3.55;;;;;;;;;;5028750;28;20120;-75
2022/03/19 00:15:31;;;;;;;14.95;3.53;;;;;;;;;;5012486;28;20479;-74
2022/03/19 00:17:57;;;;;;;19.70;2.97;;;;;;;;;;5014027;28;20152;-74
2022/03/19 00:20:23;;;;;;;18.38;4.22;;;;;;;;;;5022643;28;20069;-74
2022/03/19 00:22:50;;;;;;;19.25;3.50;;;;;;;;;;5023357;28;20029;-74
2022/03/19 00:25:16;;;;;;;16.40;2.95;;;;;;;;;;5022117;28;20033;-74
2022/03/19 00:27:42;;;;;;;24.88;3.80;;;;;;;;;;5027552;28;20104;-75
2022/03/19 00:30:09;;;;;;;17.30;3.42;;;;;;;;;;5024233;28;20044;-74
2022/03/19 00:32:35;;;;;;;27.38;3.72;;;;;;;;;;5030064;28;20052;-74
2022/03/19 00:35:01;;;;;;;17.88;4.20;;;;;;;;;;5025619;28;20124;-74
2022/03/19 00:37:27;;;;;;;11.65;3.22;;;;;;;;;;5029360;28;20037;-74
2022/03/19 00:39:53;;;;;;;21.40;3.25;;;;;;;;;;5030930;28;20034;-74
2022/03/19 00:42:19;;;;;;;20.75;2.90;;;;;;;;;;5028405;28;20543;-74
2022/03/19 00:44:47;;;;;;;15.50;3.05;;;;;;;;;;5027750;28;20030;-74
2022/03/19 00:47:13;;;;;;;17.15;3.35;;;;;;;;;;5018927;28;20026;-74
2022/03/19 00:49:39;;;;;;;16.05;4.22;;;;;;;;;;5018884;28;20087;-74
2022/03/19 00:52:05;;;;;;;17.33;3.00;;;;;;;;;;5022938;28;20059;-74
2022/03/19 00:54:31;;;;;;;22.98;3.38;;;;;;;;;;5030400;28;20041;-74
2022/03/19 00:56:57;;;;;;;15.85;3.20;;;;;;;;;;5029026;28;20029;-74
2022/03/19 00:59:23;;;;;;;22.52;4.03;;;;;;;;;;5030157;28;20396;-74
2022/03/19 01:01:50;;;;;;;20.75;3.25;;;;;;;;;;5027232;28;20476;-74
2022/03/19 01:04:16;;;;;;;23.67;3.58;;;;;;;;;;5007517;28;20466;-74
2022/03/19 01:06:42;;;;;;;15.02;2.85;;;;;;;;;;5028334;28;20033;-74
2022/03/19 01:09:08;;;;;;;23.90;3.97;;;;;;;;;;5028979;28;20036;-74
2022/03/19 01:11:34;;;;;;;17.45;3.30;;;;;;;;;;5031370;28;20029;-74
2022/03/19 01:14:00;;;;;;;12.27;2.70;;;;;;;;;;5033142;28;20064;-74
2022/03/19 01:16:26;;;;;;;17.65;3.15;;;;;;;;;;5024085;28;20393;-74
2022/03/19 01:18:52;;;;;;;17.40;2.80;;;;;;;;;;5024758;28;20108;-74
2022/03/19 01:21:18;;;;;;;16.42;3.38;;;;;;;;;;5033749;28;20035;-74
2022/03/19 01:23:46;;;;;;;25.95;2.70;;;;;;;;;;5032226;28;20037;-74
2022/03/19 01:26:12;;;;;;;18.52;3.80;;;;;;;;;;5028825;28;20541;-74
2022/03/19 01:28:38;;;;;;;20.45;4.95;;;;;;;;;;5033382;28;20061;-74
2022/03/19 01:31:04;;;;;;;19.75;4.35;;;;;;;;;;5030111;28;20034;-74
2022/03/19 01:33:30;;;;;;;16.65;2.58;;;;;;;;;;5030259;28;20419;-74
2022/03/19 01:35:56;;;;;;;15.80;3.03;;;;;;;;;;5025239;28;20059;-74
2022/03/19 01:38:22;;;;;;;25.90;3.97;;;;;;;;;;5028427;28;20049;-73
2022/03/19 01:40:48;;;;;;;23.38;3.40;;;;;;;;;;5027500;28;20058;-74
2022/03/19 01:43:15;;;;;;;22.65;3.95;;;;;;;;;;5010418;28;20049;-74
2022/03/19 01:45:41;;;;;;;13.95;2.50;;;;;;;;;;5020939;28;20036;-74
2022/03/19 01:48:07;;;;;;;13.30;2.60;;;;;;;;;;4993114;28;20478;-74
2022/03/19 01:50:33;;;;;;;20.02;3.53;;;;;;;;;;5031125;28;20392;-74
2022/03/19 01:52:59;;;;;;;22.33;3.45;;;;;;;;;;5033895;28;20085;-74
2022/03/19 01:55:26;;;;;;;13.15;2.78;;;;;;;;;;5027424;28;20029;-74
2022/03/19 01:57:53;;;;;;;14.63;2.88;;;;;;;;;;5032400;28;20029;-74
2022/03/19 02:00:23;;;;;;;19.65;3.03;;;;;;;;;;5031331;28;20041;-74
2022/03/19 02:02:50;;;;;;;23.00;3.38;;;;;;;;;;5028384;28;20420;-73
2022/03/19 02:05:18;;;;;;;18.73;3.17;;;;;;;;;;5029028;28;20040;-74
2022/03/19 02:07:45;;;;;;;11.45;3.00;;;;;;;;;;5033290;28;20041;-74
2022/03/19 02:10:11;;;;;;;25.30;3.20;;;;;;;;;;5027912;28;20397;-74
2022/03/19 02:12:38;;;;;;;17.30;3.63;;;;;;;;;;5030544;28;20063;-74
2022/03/19 02:15:05;;;;;;;10.25;2.33;;;;;;;;;;5031773;28;20420;-74
2022/03/19 02:17:31;;;;;;;20.15;2.85;;;;;;;;;;5032796;28;20042;-74
2022/03/19 02:19:58;;;;;;;14.23;3.33;;;;;;;;;;5032343;28;20101;-74
2022/03/19 02:22:26;;;;;;;18.45;3.80;;;;;;;;;;5014478;28;20041;-74
2022/03/19 02:27:37;;;;;;;25.67;2.80;;;;;;;;;;5030710;28;20079;-74
2022/03/19 02:30:04;;;;;;;15.07;3.28;;;;;;;;;;5014157;28;20034;-74
2022/03/19 02:32:31;;;;;;;26.20;4.65;;;;;;;;;;5030789;28;20049;-74
2022/03/19 02:34:57;;;;;;;17.23;4.18;;;;;;;;;;5013231;28;20113;-74
2022/03/19 02:37:23;;;;;;;19.40;3.08;;;;;;;;;;5021363;28;20104;-74
2022/03/19 02:39:50;;;;;;;17.30;3.05;;;;;;;;;;5029405;28;20076;-75
2022/03/19 02:42:20;;;;;;;22.33;3.25;;;;;;;;;;5015739;28;20057;-75
2022/03/19 02:44:46;;;;;;;21.17;3.65;;;;;;;;;;5032774;28;20025;-75
2022/03/19 02:47:12;;;;;;;15.68;4.25;;;;;;;;;;5029672;28;20137;-75
2022/03/19 02:49:39;;;;;;;20.20;3.72;;;;;;;;;;5032883;28;20033;-75
2022/03/19 02:52:05;;;;;;;18.42;3.70;;;;;;;;;;5018778;28;20461;-75
2022/03/19 02:54:32;;;;;;;22.85;3.97;;;;;;;;;;5029833;28;20029;-75
2022/03/19 02:56:58;;;;;;;17.13;3.53;;;;;;;;;;5030319;28;20076;-75
2022/03/19 02:59:32;;;;;;;10.32;2.55;;;;;;;;;;5027046;28;20061;-75
2022/03/19 03:01:59;;;;;;;14.48;2.72;;;;;;;;;;5027993;28;20501;-76
2022/03/19 03:04:25;;;;;;;20.08;3.67;;;;;;;;;;5029958;28;20068;-75
2022/03/19 03:06:53;;;;;;;20.10;3.05;;;;;;;;;;5025998;28;20029;-75
2022/03/19 03:09:19;;;;;;;20.45;2.72;;;;;;;;;;5023505;28;20114;-75
2022/03/19 03:11:45;;;;;;;19.92;4.10;;;;;;;;;;5024339;28;20033;-76
2022/03/19 03:14:13;;;;;;;21.98;5.40;;;;;;;;;;5030147;28;20044;-76
2022/03/19 03:16:40;;;;;;;31.67;3.15;;;;;;;;;;5021746;28;20033;-75
2022/03/19 03:19:07;;;;;;;20.70;4.22;;;;;;;;;;5014848;28;20072;-75
2022/03/19 03:21:33;;;;;;;15.23;3.70;;;;;;;;;;5020898;28;20026;-75
2022/03/19 03:24:00;;;;;;;15.18;3.50;;;;;;;;;;5018897;28;20104;-75
2022/03/19 03:26:26;;;;;;;15.88;3.42;;;;;;;;;;5028086;28;20259;-75
2022/03/19 03:28:52;;;;;;;21.33;4.45;;;;;;;;;;4996010;28;20084;-75
2022/03/19 03:31:18;;;;;;;20.45;3.22;;;;;;;;;;5019588;28;20079;-75
2022/03/19 03:33:44;;;;;;;17.75;3.45;;;;;;;;;;5017441;28;20025;-75
2022/03/19 03:36:10;;;;;;;17.95;3.60;;;;;;;;;;5017497;28;20404;-75
2022/03/19 03:38:37;;;;;;;22.58;3.13;;;;;;;;;;5031137;28;20026;-75
2022/03/19 03:41:03;;;;;;;24.27;4.43;;;;;;;;;;5026580;28;20137;-75
2022/03/19 03:43:29;;;;;;;15.30;3.38;;;;;;;;;;4997382;28;20037;-75
2022/03/19 03:45:55;;;;;;;11.55;2.95;;;;;;;;;;5030458;28;20385;-75
2022/03/19 03:48:21;;;;;;;20.23;2.85;;;;;;;;;;5030580;28;20374;-75
2022/03/19 03:50:50;;;;;;;14.15;2.85;;;;;;;;;;5031237;28;20036;-75
2022/03/19 03:53:16;;;;;;;17.38;3.97;;;;;;;;;;5013029;28;20029;-75
2022/03/19 03:55:43;;;;;;;23.65;4.35;;;;;;;;;;5030347;28;20041;-75
2022/03/19 03:58:09;;;;;;;23.58;4.30;;;;;;;;;;5029219;28;20112;-75
2022/03/19 04:00:35;;;;;;;24.17;4.05;;;;;;;;;;5028900;28;20030;-75
2022/03/19 04:03:03;;;;;;;20.98;3.20;;;;;;;;;;5024755;28;20481;-75
2022/03/19 04:05:29;;;;;;;16.88;3.10;;;;;;;;;;5013373;28;20026;-75
2022/03/19 04:07:55;;;;;;;22.85;3.92;;;;;;;;;;5029055;28;20377;-75
2022/03/19 04:10:22;;;;;;;16.02;2.83;;;;;;;;;;5030314;28;20481;-75
2022/03/19 04:12:48;;;;;;;20.52;3.67;;;;;;;;;;5025323;28;20038;-76
2022/03/19 04:15:14;;;;;;;19.45;4.03;;;;;;;;;;5012916;28;20547;-76
2022/03/19 04:17:43;;;;;;;23.90;3.95;;;;;;;;;;5030765;28;20072;-75
2022/03/19 04:20:10;;;;;;;23.40;4.55;;;;;;;;;;5027922;28;20025;-75
2022/03/19 04:22:39;;;;;;;21.92;4.20;;;;;;;;;;5028812;28;20025;-75
2022/03/19 04:25:06;;;;;;;20.92;3.58;;;;;;;;;;5028988;28;20084;-75
2022/03/19 04:27:32;;;;;;;20.70;4.90;;;;;;;;;;5030682;28;20057;-75
2022/03/19 04:29:58;;;;;;;23.27;4.00;;;;;;;;;;5027623;28;20037;-75
2022/03/19 04:32:24;;;;;;;27.65;4.07;;;;;;;;;;5003042;28;20464;-74
2022/03/19 04:34:50;;;;;;;17.35;3.75;;;;;;;;;;5027197;28;20037;-74
2022/03/19 04:37:16;;;;;;;16.88;4.38;;;;;;;;;;5031092;28;20029;-75
2022/03/19 04:39:42;;;;;;;23.80;5.03;;;;;;;;;;5029448;28;20069;-75
2022/03/19 04:42:08;;;;;;;15.50;3.67;;;;;;;;;;5029846;28;20053;-74
2022/03/19 04:44:34;;;;;;;21.13;4.00;;;;;;;;;;5026219;28;20034;-74
2022/03/19 04:47:00;;;;;;;20.35;4.45;;;;;;;;;;5026395;28;20037;-75
2022/03/19 04:49:26;;;;;;;16.40;4.70;;;;;;;;;;5017478;28;20049;-75
2022/03/19 04:51:52;;;;;;;22.88;4.25;;;;;;;;;;5024998;28;20120;-74
2022/03/19 04:54:20;;;;;;;25.40;6.00;;;;;;;;;;5030320;28;20037;-74
2022/03/19 04:56:46;;;;;;;19.33;3.70;;;;;;;;;;5027077;28;20026;-75
2022/03/19 04:59:15;;;;;;;23.88;7.35;;;;;;;;;;5009588;28;20044;-72
2022/03/19 05:01:41;;;;;;;22.50;6.45;;;;;;;;;;5030773;28;20039;-73
2022/03/19 05:04:08;;;;;;;21.77;4.82;;;;;;;;;;5032923;28;20048;-74
2022/03/19 05:06:34;;;;;;;17.00;4.13;;;;;;;;;;5032209;28;20040;-74
2022/03/19 05:11:45;;;;;;;17.65;4.03;;;;;;;;;;5024741;28;20064;-74
2022/03/19 05:14:11;;;;;;;17.05;3.95;;;;;;;;;;5032694;28;22698;-74
2022/03/19 05:16:37;;;;;;;17.00;3.60;;;;;;;;;;5006710;28;20033;-73
2022/03/19 05:19:04;;;;;;;22.70;4.38;;;;;;;;;;5029182;28;20033;-73
2022/03/19 05:21:30;;;;;;;13.07;4.32;;;;;;;;;;5029375;28;20032;-73
2022/03/19 05:23:56;;;;;;;17.85;4.95;;;;;;;;;;5034166;28;20527;-74
2022/03/19 05:26:22;;;;;;;18.80;4.35;;;;;;;;;;5032285;28;20029;-74
2022/03/19 05:28:48;;;;;;;20.50;4.25;;;;;;;;;;5025153;28;20469;-74
2022/03/19 05:31:14;;;;;;;29.30;10.18;;;;;;;;;;5024383;28;20033;-73
2022/03/19 05:36:27;;;;;;;32.70;11.35;;;;;;;;;;5026051;28;20050;-74
2022/03/19 05:38:53;;;;;;;16.17;4.28;;;;;;;;;;5032913;28;20061;-75
2022/03/19 05:41:19;;;;;;;22.80;4.60;;;;;;;;;;5027564;28;20080;-75
2022/03/19 05:43:46;;;;;;;17.77;4.90;;;;;;;;;;5030015;28;20040;-74
2022/03/19 05:46:12;;;;;;;22.55;4.10;;;;;;;;;;5009580;28;20193;-75
2022/03/19 05:48:38;;;;;;;23.33;5.22;;;;;;;;;;5017682;28;20045;-75
2022/03/19 05:51:05;;;;;;;17.67;4.43;;;;;;;;;;5032228;28;20037;-74
2022/03/19 05:53:31;;;;;;;16.83;4.32;;;;;;;;;;5030273;28;20029;-74
2022/03/19 05:55:58;;;;;;;20.42;4.43;;;;;;;;;;5031240;28;20069;-76
2022/03/19 05:58:24;;;;;;;17.80;4.50;;;;;;;;;;5020443;28;20037;-75
2022/03/19 06:00:50;;;;;;;19.67;3.83;;;;;;;;;;5028442;28;20436;-75
2022/03/19 06:03:16;;;;;;;19.08;3.70;;;;;;;;;;4998082;28;20120;-75
2022/03/19 06:05:42;;;;;;;17.38;4.90;;;;;;;;;;5020226;28;20298;-75
2022/03/19 06:08:08;;;;;;;14.15;3.88;;;;;;;;;;5021541;28;20040;-75
2022/03/19 06:10:35;;;;;;;15.60;3.97;;;;;;;;;;5015523;28;20128;-74
2022/03/19 06:13:03;;;;;;;16.67;3.53;;;;;;;;;;5033622;28;20112;-74
2022/03/19 06:15:29;;;;;;;14.30;3.67;;;;;;;;;;5010192;28;20555;-75
2022/03/19 06:17:55;;;;;;;23.30;3.70;;;;;;;;;;5026054;28;20147;-75
2022/03/19 06:20:22;;;;;;;13.93;4.10;;;;;;;;;;5031510;28;20481;-77
2022/03/19 06:22:49;;;;;;;15.15;3.42;;;;;;;;;;5032490;28;20052;-73
2022/03/19 06:25:15;;;;;;;22.08;4.25;;;;;;;;;;5031505;28;20029;-75
2022/03/19 06:27:41;;;;;;;14.10;4.75;;;;;;;;;;5026533;28;20046;-75
2022/03/19 06:30:08;;;;;;;14.73;3.85;;;;;;;;;;5015548;28;20061;-75
2022/03/19 06:32:37;;;;;;;40.65;14.35;;;;;;;;;;5006632;28;20079;-76
2022/03/19 06:35:03;;;;;;;15.70;6.13;;;;;;;;;;5027868;28;20754;-75
2022/03/19 06:37:29;;;;;;;17.70;3.95;;;;;;;;;;5029305;28;20116;-74
2022/03/19 06:39:57;;;;;;;17.98;4.45;;;;;;;;;;5026688;28;20120;-74
2022/03/19 06:42:24;;;;;;;18.52;4.00;;;;;;;;;;5009433;28;20132;-75
2022/03/19 06:44:50;;;;;;;17.40;4.22;;;;;;;;;;5031279;28;20038;-75
2022/03/19 06:47:16;;;;;;;26.70;5.30;;;;;;;;;;5028328;28;20257;-77
2022/03/19 06:49:42;;;;;;;14.55;3.95;;;;;;;;;;5032188;28;20116;-76
2022/03/19 06:52:10;;;;;;;20.75;4.47;;;;;;;;;;5029798;28;20037;-75
2022/03/19 06:54:36;;;;;;;11.23;3.25;;;;;;;;;;5031448;28;20381;-76
2022/03/19 06:57:02;;;;;;;14.95;3.78;;;;;;;;;;5029474;28;20424;-75
2022/03/19 06:59:28;;;;;;;11.43;3.88;;;;;;;;;;5023164;28;20030;-75
2022/03/19 07:01:55;;;;;;;15.57;3.30;;;;;;;;;;5031313;28;20386;-75
2022/03/19 07:04:21;;;;;;;15.30;4.75;;;;;;;;;;5012381;28;20932;-76
2022/03/19 07:06:47;;;;;;;21.50;6.78;;;;;;;;;;5022936;28;20068;-73
2022/03/19 07:09:13;;;;;;;22.02;7.07;;;;;;;;;;5025867;28;20048;-73
2022/03/19 07:11:39;;;;;;;16.92;4.57;;;;;;;;;;5029925;28;20060;-75
2022/03/19 07:14:05;;;;;;;13.80;3.92;;;;;;;;;;5025985;28;20423;-74
2022/03/19 07:16:32;;;;;;;13.10;3.67;;;;;;;;;;5025757;28;20026;-74
2022/03/19 07:18:58;;;;;;;18.70;4.00;;;;;;;;;;5018274;28;20052;-75
2022/03/19 07:21:24;;;;;;;14.13;3.80;;;;;;;;;;5030544;28;20041;-75
2022/03/19 07:23:50;;;;;;;23.38;4.85;;;;;;;;;;5029101;28;20030;-75
2022/03/19 07:26:16;;;;;;;11.00;3.47;;;;;;;;;;5019792;28;20067;-75
2022/03/19 07:28:43;;;;;;;17.33;4.63;;;;;;;;;;5006022;28;20063;-74
2022/03/19 07:31:09;;;;;;;13.77;4.57;;;;;;;;;;5009918;28;20034;-73
2022/03/19 07:33:35;;;;;;;11.80;3.47;;;;;;;;;;5026075;28;20026;-73
2022/03/19 07:36:02;;;;;;;16.33;3.65;;;;;;;;;;5032115;28;20492;-73
2022/03/19 07:38:28;;;;;;;18.25;5.00;;;;;;;;;;5026759;28;20584;-73
2022/03/19 07:43:39;;;;;;;15.80;3.78;;;;;;;;;;5014113;28;20108;-73
2022/03/19 07:46:05;;;;;;;14.00;4.85;;;;;;;;;;5019244;28;20088;-74
2022/03/19 07:48:31;;;;;;;11.90;4.20;;;;;;;;;;5013316;28;20072;-73
2022/03/19 07:50:57;;;;;;;13.23;4.60;;;;;;;;;;5024644;28;20037;-73
2022/03/19 07:53:23;;;;;;;17.58;4.85;;;;;;;;;;5021517;28;20120;-74
2022/03/19 07:55:50;;;;;;;17.00;4.38;;;;;;;;;;5028256;28;20033;-74
2022/03/19 07:58:17;;;;;;;21.98;5.47;;;;;;;;;;5027646;28;20041;-74
2022/03/19 08:00:43;;;;;;;16.67;3.92;;;;;;;;;;5029655;28;20041;-75
2022/03/19 08:03:09;;;;;;;16.80;3.90;;;;;;;;;;5023756;28;20057;-74
2022/03/19 08:05:35;;;;;;;17.25;5.03;;;;;;;;;;4997596;28;20117;-74
2022/03/19 08:08:03;;;;;;;18.80;4.75;;;;;;;;;;5014188;28;20057;-74
2022/03/19 08:10:29;;;;;;;17.02;4.57;;;;;;;;;;5028189;28;20108;-75
2022/03/19 08:12:59;;;;;;;14.90;4.22;;;;;;;;;;5028801;28;20033;-74
2022/03/19 08:15:26;;;;;;;27.73;12.10;;;;;;;;;;5022447;28;20021;-74
2022/03/19 08:17:52;;;;;;;16.42;5.53;;;;;;;;;;5024759;28;20029;-74
2022/03/19 08:20:19;;;;;;;18.67;3.70;;;;;;;;;;5028495;28;20428;-74
2022/03/19 08:22:45;;;;;;;19.08;4.65;;;;;;;;;;5011605;28;20062;-75
2022/03/19 08:25:11;;;;;;;13.48;4.00;;;;;;;;;;5025225;28;20499;-75
2022/03/19 08:27:38;;;;;;;17.08;4.28;;;;;;;;;;5029505;28;20042;-76
2022/03/19 08:30:04;;;;;;;12.50;4.18;;;;;;;;;;5013984;28;20053;-75
2022/03/19 08:32:30;;;;;;;16.23;5.55;;;;;;;;;;5027076;28;20034;-75
2022/03/19 08:34:56;;;;;;;14.20;3.80;;;;;;;;;;5023084;28;20028;-75
2022/03/19 08:37:23;;;;;;;25.55;4.65;;;;;;;;;;5012768;28;20132;-75
2022/03/19 08:42:34;;;;;;;17.48;3.95;;;;;;;;;;5029572;28;20105;-76
2022/03/19 08:45:00;;;;;;;12.88;3.17;;;;;;;;;;5029995;28;20032;-76
2022/03/19 08:47:26;;;;;;;13.68;3.55;;;;;;;;;;5014993;28;20046;-76
2022/03/19 08:49:52;;;;;;;15.18;4.07;;;;;;;;;;5028931;28;20784;-76
2022/03/19 08:52:18;;;;;;;13.63;3.47;;;;;;;;;;5029484;28;20107;-76
2022/03/19 08:54:44;;;;;;;14.15;3.83;;;;;;;;;;5030481;28;20071;-76
2022/03/19 08:57:10;;;;;;;12.75;3.40;;;;;;;;;;5029743;28;20047;-75
2022/03/19 08:59:36;;;;;;;12.50;2.90;;;;;;;;;;5024356;28;20045;-75
2022/03/19 09:02:02;;;;;;;21.42;6.47;;;;;;;;;;5024320;28;20037;-75
2022/03/19 09:04:29;;;;;;;10.95;3.65;;;;;;;;;;5017610;28;20025;-75
2022/03/19 09:06:55;;;;;;;14.70;3.17;;;;;;;;;;5022368;28;20416;-76
2022/03/19 09:09:21;;;;;;;10.23;2.85;;;;;;;;;;5005063;28;20548;-76
2022/03/19 09:11:48;;;;;;;14.80;2.72;;;;;;;;;;5030144;28;20037;-75
2022/03/19 09:14:16;;;;;;;15.13;3.13;;;;;;;;;;5017405;28;20025;-76
2022/03/19 09:16:42;;;;;;;11.95;3.00;;;;;;;;;;5023662;28;20084;-75
2022/03/19 09:19:08;;;;;;;21.15;3.17;;;;;;;;;;5024040;28;20496;-75
2022/03/19 09:21:34;;;;;;;12.65;3.13;;;;;;;;;;5030757;28;20028;-76
2022/03/19 09:24:00;;;;;;;11.27;2.90;;;;;;;;;;5020804;28;20034;-75
2022/03/19 09:26:26;;;;;;;13.32;2.92;;;;;;;;;;5030032;28;20061;-76
2022/03/19 09:28:52;;;;;;;17.27;3.28;;;;;;;;;;5021170;28;20488;-76
2022/03/19 09:31:19;;;;;;;13.98;2.97;;;;;;;;;;5029881;28;20370;-76
2022/03/19 09:33:46;;;;;;;12.20;2.97;;;;;;;;;;5022153;28;20026;-75
2022/03/19 09:36:12;;;;;;;11.25;2.92;;;;;;;;;;5014213;28;20022;-76
2022/03/19 09:38:42;;;;;;;6.85;2.20;;;;;;;;;;5014817;28;20038;-76
2022/03/19 09:41:09;;;;;;;9.40;2.83;;;;;;;;;;5030161;28;20077;-76
2022/03/19 09:43:35;;;;;;;10.85;2.28;;;;;;;;;;5030786;28;20045;-75
2022/03/19 09:46:07;;;;;;;8.55;2.00;;;;;;;;;;5012988;28;20614;-75
2022/03/19 09:48:33;;;;;;;7.95;2.08;;;;;;;;;;5018108;28;20411;-75
2022/03/19 09:50:59;;;;;;;6.68;2.03;;;;;;;;;;5031268;28;20117;-75
2022/03/19 09:53:27;;;;;;;9.18;2.10;;;;;;;;;;5031266;28;20040;-75
2022/03/19 09:55:56;;;;;;;7.57;2.22;;;;;;;;;;5014167;28;20033;-75
2022/03/19 09:58:22;;;;;;;8.40;1.83;;;;;;;;;;5022911;28;20021;-75
2022/03/19 10:00:48;;;;;;;8.70;2.08;;;;;;;;;;5032193;28;20473;-75
2022/03/19 10:03:14;;;;;;;7.03;2.03;;;;;;;;;;5032954;28;20053;-75
2022/03/19 10:08:36;;;;;;;8.75;1.98;;;;;;;;;;5033031;28;20072;-74
2022/03/19 10:11:11;;;;;;;6.38;1.67;;;;;;;;;;5029616;28;20112;-73
2022/03/19 10:13:38;;;;;;;11.82;2.10;;;;;;;;;;5020112;28;20033;-73
2022/03/19 10:16:05;;;;;;;7.47;2.30;;;;;;;;;;5004103;28;20036;-74
2022/03/19 10:18:33;;;;;;;8.52;2.28;;;;;;;;;;5028179;28;20037;-73
2022/03/19 10:21:01;;;;;;;10.13;2.28;;;;;;;;;;5032182;28;20065;-73
2022/03/19 10:23:39;;;;;;;10.55;2.50;;;;;;;;;;5028196;28;20808;-74
2022/03/19 10:26:06;;;;;;;26.45;13.95;;;;;;;;;;5028429;28;20029;-74
2022/03/19 10:28:33;;;;;;;10.18;3.90;;;;;;;;;;5027700;28;20025;-73
2022/03/19 10:30:59;;;;;;;7.10;1.88;;;;;;;;;;5027432;28;20441;-73
2022/03/19 10:33:27;;;;;;;8.57;1.95;;;;;;;;;;5030041;28;20030;-74
2022/03/19 10:36:05;;;;;;;8.45;2.15;;;;;;;;;;5025351;28;20076;-74
2022/03/19 10:38:39;;;;;;;7.38;1.90;;;;;;;;;;5031024;28;20088;-74
2022/03/19 10:41:05;;;;;;;7.05;1.77;;;;;;;;;;5032206;28;20057;-74
2022/03/19 10:43:33;;;;;;;6.75;2.13;;;;;;;;;;5029118;28;20029;-74
2022/03/19 10:46:01;;;;;;;9.07;2.00;;;;;;;;;;5030416;28;20034;-74
2022/03/19 10:48:28;;;;;;;6.80;2.72;;;;;;;;;;5031388;28;20104;-74
2022/03/19 10:50:55;;;;;;;8.93;2.53;;;;;;;;;;5020940;28;20388;-77
2022/03/19 10:53:22;;;;;;;5.93;2.03;;;;;;;;;;5032943;28;20097;-76
2022/03/19 10:55:48;;;;;;;6.88;2.60;;;;;;;;;;5030382;28;20063;-73
2022/03/19 10:58:14;;;;;;;10.70;2.45;;;;;;;;;;5028955;28;20106;-73
2022/03/19 11:00:41;;;;;;;7.80;2.03;;;;;;;;;;5030567;28;20033;-73
2022/03/19 11:03:11;;;;;;;9.52;2.28;;;;;;;;;;5028751;28;20496;-73
2022/03/19 11:05:38;;;;;;;6.35;1.88;;;;;;;;;;5020533;28;20477;-73
2022/03/19 11:08:07;;;;;;;11.80;2.38;;;;;;;;;;5019515;28;20029;-73
2022/03/19 11:10:35;;;;;;;6.47;1.58;;;;;;;;;;5019733;28;20143;-73
2022/03/19 11:13:02;;;;;;;6.50;1.58;;;;;;;;;;5027728;28;20393;-73
2022/03/19 11:15:31;;;;;;;7.25;2.25;;;;;;;;;;5031693;28;20044;-73
2022/03/19 11:17:57;;;;;;;11.80;2.80;;;;;;;;;;5021869;28;20108;-74
2022/03/19 11:20:23;;;;;;;9.05;2.13;;;;;;;;;;5026373;28;20037;-76
2022/03/19 11:22:57;;;;;;;10.63;2.03;;;;;;;;;;5029041;28;20096;-74
2022/03/19 11:25:27;;;;;;;4.60;1.42;;;;;;;;;;5022332;28;20042;-74
2022/03/19 11:27:56;;;;;;;6.85;1.60;;;;;;;;;;5027943;28;20258;-74
2022/03/19 11:30:24;;;;;;;6.53;1.58;;;;;;;;;;5026420;28;20033;-73
2022/03/19 11:33:03;;;;;;;6.90;1.75;;;;;;;;;;5023519;28;20059;-73
2022/03/19 11:35:30;;;;;;;6.45;1.35;;;;;;;;;;5020571;28;20029;-73
2022/03/19 11:38:05;;;;;;;9.88;1.50;;;;;;;;;;5032881;28;20049;-73
2022/03/19 11:40:35;;;;;;;6.88;1.50;;;;;;;;;;5023749;28;20437;-74
2022/03/19 11:43:01;;;;;;;11.70;1.80;;;;;;;;;;5028911;28;20054;-73
2022/03/19 11:45:28;;;;;;;7.78;1.70;;;;;;;;;;5022274;28;20021;-73
2022/03/19 11:47:54;;;;;;;8.50;1.60;;;;;;;;;;5012985;28;20033;-74
2022/03/19 11:50:22;;;;;;;4.15;1.30;;;;;;;;;;5029238;28;20432;-74
2022/03/19 11:52:48;;;;;;;9.30;1.80;;;;;;;;;;5030786;28;20029;-74
2022/03/19 11:55:17;;;;;;;8.35;1.67;;;;;;;;;;5018059;28;20029;-74
2022/03/19 11:57:46;;;;;;;6.25;1.77;;;;;;;;;;5031899;28;20017;-74
2022/03/19 12:00:16;;;;;;;6.72;1.13;;;;;;;;;;5026531;28;20616;-73
2022/03/19 12:03:02;;;;;;;5.20;1.05;;;;;;;;;;5029008;28;20025;-73
2022/03/19 12:05:29;;;;;;;5.88;1.23;;;;;;;;;;5029941;28;20057;-73
2022/03/19 12:07:57;;;;;;;5.35;1.17;;;;;;;;;;5031427;28;20036;-73
2022/03/19 12:10:24;;;;;;;4.93;1.60;;;;;;;;;;5012824;28;20037;-74
2022/03/19 12:12:51;;;;;;;6.55;2.30;;;;;;;;;;5025147;28;20030;-73
2022/03/19 12:15:32;;;;;;;9.52;2.00;;;;;;;;;;5026654;28;20038;-73
2022/03/19 12:18:17;;;;;;;8.02;1.90;;;;;;;;;;5024133;28;20033;-73
2022/03/19 12:20:43;;;;;;;6.82;1.50;;;;;;;;;;5023248;28;20049;-73
2022/03/19 12:23:11;;;;;;;6.88;2.70;;;;;;;;;;5022787;28;20032;-73
2022/03/19 12:25:42;;;;;;;13.50;7.53;;;;;;;;;;5027203;28;20036;-73
2022/03/19 12:28:08;;;;;;;6.63;1.70;;;;;;;;;;5025454;28;20061;-72
2022/03/19 12:30:35;;;;;;;5.32;1.50;;;;;;;;;;5025305;28;20037;-72
2022/03/19 12:33:02;;;;;;;5.45;1.83;;;;;;;;;;5025199;28;20022;-73
2022/03/19 12:35:39;;;;;;;5.78;1.60;;;;;;;;;;5014487;28;20034;-74
2022/03/19 12:38:05;;;;;;;5.13;1.27;;;;;;;;;;5012625;28;20469;-74
2022/03/19 12:43:19;;;;;;;5.30;1.45;;;;;;;;;;4986379;28;20045;-73
2022/03/19 12:45:48;;;;;;;9.73;1.60;;;;;;;;;;5021733;28;20103;-73
2022/03/19 12:48:16;;;;;;;6.65;1.73;;;;;;;;;;5029510;28;20095;-73
2022/03/19 12:50:52;;;;;;;5.28;1.52;;;;;;;;;;5026589;28;20030;-73
2022/03/19 12:53:32;;;;;;;3.70;1.02;;;;;;;;;;5025304;28;20710;-73
2022/03/19 12:56:16;;;;;;;4.35;1.20;;;;;;;;;;5022530;28;20029;-74
2022/03/19 12:58:44;;;;;;;3.28;1.40;;;;;;;;;;5029198;28;20042;-73
2022/03/19 13:01:13;;;;;;;5.70;1.20;;;;;;;;;;5027798;28;20033;-73
2022/03/19 13:03:41;;;;;;;5.32;1.35;;;;;;;;;;5015679;28;20041;-73
2022/03/19 13:06:07;;;;;;;4.55;1.35;;;;;;;;;;5021762;28;20037;-73
2022/03/19 13:08:47;;;;;;;7.80;1.15;;;;;;;;;;5029544;28;20025;-73
2022/03/19 13:11:13;;;;;;;7.25;2.92;;;;;;;;;;5009722;28;20048;-72
2022/03/19 13:13:41;;;;;;;3.58;1.85;;;;;;;;;;5029193;28;20519;-72
2022/03/19 13:16:07;;;;;;;3.88;0.90;;;;;;;;;;5029652;28;20029;-73
2022/03/19 13:18:37;;;;;;;3.53;1.05;;;;;;;;;;5032481;28;20428;-73
2022/03/19 13:21:07;;;;;;;3.38;1.15;;;;;;;;;;5032918;28;20041;-74
2022/03/19 13:23:34;;;;;;;4.30;1.10;;;;;;;;;;5026059;28;20081;-74
2022/03/19 13:26:01;;;;;;;4.20;1.00;;;;;;;;;;5022966;28;20029;-74
2022/03/19 13:28:27;;;;;;;3.28;1.05;;;;;;;;;;5032572;28;20021;-74
2022/03/19 13:30:55;;;;;;;7.78;1.38;;;;;;;;;;5027784;28;20492;-73
2022/03/19 13:33:25;;;;;;;4.15;0.90;;;;;;;;;;5030397;28;20026;-74
2022/03/19 13:35:52;;;;;;;4.20;1.35;;;;;;;;;;5019989;28;20026;-74
2022/03/19 13:38:20;;;;;;;3.58;1.05;;;;;;;;;;5032118;28;20381;-73
2022/03/19 13:40:50;;;;;;;6.25;1.27;;;;;;;;;;5029898;28;20065;-74
2022/03/19 13:43:17;;;;;;;4.65;1.08;;;;;;;;;;5014658;28;20034;-73
2022/03/19 13:45:43;;;;;;;4.45;1.40;;;;;;;;;;5031992;28;20547;-74
2022/03/19 13:48:09;;;;;;;5.07;1.60;;;;;;;;;;5028722;28;20094;-74
2022/03/19 13:50:38;;;;;;;5.50;1.02;;;;;;;;;;5031192;28;20171;-74
2022/03/19 13:53:04;;;;;;;3.75;1.25;;;;;;;;;;5030490;28;20025;-74
2022/03/19 13:55:30;;;;;;;4.68;1.30;;;;;;;;;;5032142;28;20091;-73
2022/03/19 13:57:57;;;;;;;4.20;1.33;;;;;;;;;;5022652;28;20459;-73
2022/03/19 14:00:27;;;;;;;5.68;1.42;;;;;;;;;;5027552;28;20076;-73
2022/03/19 14:03:03;;;;;;;5.93;1.65;;;;;;;;;;5010369;28;20037;-73
2022/03/19 14:05:33;;;;;;;5.82;1.48;;;;;;;;;;5031888;28;20021;-73
2022/03/19 14:08:03;;;;;;;4.70;1.48;;;;;;;;;;5032999;28;20543;-74
2022/03/19 14:10:30;;;;;;;6.72;1.88;;;;;;;;;;5031790;28;20026;-74
2022/03/19 14:13:04;;;;;;;2.90;1.17;;;;;;;;;;5032575;28;20026;-74
2022/03/19 14:15:56;;;;;;;5.85;1.48;;;;;;;;;;5029320;28;20477;-73
2022/03/19 14:18:32;;;;;;;6.65;1.80;;;;;;;;;;5022654;28;20626;-74
2022/03/19 14:20:59;;;;;;;3.72;1.45;;;;;;;;;;5027242;28;20059;-75
2022/03/19 14:23:26;;;;;;;5.20;1.50;;;;;;;;;;5032369;28;20032;-74
2022/03/19 14:25:52;;;;;;;6.63;1.80;;;;;;;;;;5028149;28;20152;-74
2022/03/19 14:28:20;;;;;;;5.57;1.42;;;;;;;;;;5032355;28;20037;-74
2022/03/19 14:30:46;;;;;;;5.40;1.88;;;;;;;;;;5031348;28;20052;-74
2022/03/19 14:33:12;;;;;;;4.93;1.35;;;;;;;;;;5029144;28;20033;-74
2022/03/19 14:35:49;;;;;;;6.63;1.52;;;;;;;;;;5031462;28;20432;-74
2022/03/19 14:38:19;;;;;;;5.30;1.58;;;;;;;;;;5007263;28;20036;-74
2022/03/19 14:40:46;;;;;;;3.47;1.42;;;;;;;;;;5029898;28;20116;-74
2022/03/19 14:43:15;;;;;;;6.80;2.00;;;;;;;;;;5032229;28;20044;-74
2022/03/19 14:45:42;;;;;;;3.70;1.20;;;;;;;;;;5026182;28;20033;-74
2022/03/19 14:48:08;;;;;;;5.53;1.73;;;;;;;;;;5031606;28;20041;-74
2022/03/19 14:50:34;;;;;;;4.45;1.40;;;;;;;;;;5030194;28;20041;-74
2022/03/19 14:53:00;;;;;;;9.38;1.50;;;;;;;;;;5026190;28;20026;-73